WXM80 ListenWXM80 Stop

You find our weather info also at:

UK Metoffice

WeatherCloud

Weather Underground

Northeastern Weather Network

AWEKAS

Citizen Weather Observer Program (CWOP)

HAMweather, WeatherForYou, PWS Weather


Weather Underground History page Text

Daily Summary for February 24, 2017 Units:  Both    English   Metric
« Previous Day
Next Day »
Daily Weekly Monthly Yearly Custom
  High: Low: Average:
Temperature: 71.8 °F /  22.1 °C 49.4 °F /  9.7 °C 59 °F /  15 °C
Dew Point: 59.0 °F /  15 °C 46.7 °F /  8.2 °C 53.4 °F /  11.9 °C
Humidity: 96 % 62 % 83 %
Wind Speed: 9.5 mph /  15.3 km/h - 3.7 mph /  6 km/h
Wind Gust: 16.1 mph /  25.9 km/h - -
Wind:- - SSW
Pressure: 29.94 in /  1013.8 hPa 29.83 in /  1010 hPa -
Precipitation: 0.00 in /  0 mm    
Historical Graphs
 
 
Tabular Data for February 24, 2017
Time Temperature Dew Point Pressure Wind Wind Speed Wind Gust Humidity Rainfall Rate (Hourly)
00:03 53.4 °F /  11.9 °C 49.6 °F /  9.8 °C 29.88 in /  1011.7 hPa SW 2.3 mph /  3.7 km/h 3.5 mph /  5.6 km/h 87 % 0.00 in /  0 mm
00:08 53.3 °F /  11.8 °C 49.5 °F /  9.7 °C 29.87 in /  1011.4 hPa SW 0.1 mph /  0.2 km/h 2.3 mph /  3.7 km/h 87 % 0.00 in /  0 mm
00:13 53.2 °F /  11.8 °C 49.1 °F /  9.5 °C 29.88 in /  1011.7 hPa SW 0.2 mph /  0.3 km/h   86 % 0.00 in /  0 mm
00:18 53.0 °F /  11.7 °C 48.6 °F /  9.2 °C 29.87 in /  1011.4 hPa SW 0.1 mph /  0.2 km/h 1.2 mph /  1.9 km/h 85 % 0.00 in /  0 mm
00:23 53.0 °F /  11.7 °C 48.9 °F /  9.4 °C 29.87 in /  1011.4 hPa Calm   1.2 mph /  1.9 km/h 86 % 0.00 in /  0 mm
00:28 52.9 °F /  11.6 °C 49.1 °F /  9.5 °C 29.88 in /  1011.7 hPa WSW 1.0 mph /  1.6 km/h 3.0 mph /  4.8 km/h 87 % 0.00 in /  0 mm
00:33 52.8 °F /  11.6 °C 49.0 °F /  9.4 °C 29.88 in /  1011.7 hPa WSW 1.0 mph /  1.6 km/h 2.0 mph /  3.2 km/h 87 % 0.00 in /  0 mm
00:38 52.6 °F /  11.4 °C 48.8 °F /  9.3 °C 29.88 in /  1011.7 hPa SW 2.0 mph /  3.2 km/h 7.0 mph /  11.3 km/h 87 % 0.00 in /  0 mm
00:43 52.3 °F /  11.3 °C 47.6 °F /  8.7 °C 29.87 in /  1011.4 hPa Calm   3.0 mph /  4.8 km/h 84 % 0.00 in /  0 mm
00:48 52.0 °F /  11.1 °C 47.3 °F /  8.5 °C 29.88 in /  1011.7 hPa SW 1.0 mph /  1.6 km/h 3.0 mph /  4.8 km/h 84 % 0.00 in /  0 mm
00:53 51.8 °F /  11 °C 47.4 °F /  8.6 °C 29.88 in /  1011.7 hPa Calm   3.0 mph /  4.8 km/h 85 % 0.00 in /  0 mm
00:58 51.7 °F /  10.9 °C 47.3 °F /  8.5 °C 29.88 in /  1011.7 hPa WSW 1.2 mph /  1.9 km/h 2.3 mph /  3.7 km/h 85 % 0.00 in /  0 mm
01:03 51.4 °F /  10.8 °C 47.0 °F /  8.3 °C 29.88 in /  1011.7 hPa WSW 1.1 mph /  1.8 km/h 2.3 mph /  3.7 km/h 85 % 0.00 in /  0 mm
01:08 51.1 °F /  10.6 °C 46.7 °F /  8.2 °C 29.88 in /  1011.7 hPa SSW 1.8 mph /  2.9 km/h 4.6 mph /  7.4 km/h 85 % 0.00 in /  0 mm
01:13 51.0 °F /  10.6 °C 47.3 °F /  8.5 °C 29.88 in /  1011.7 hPa SW 0.3 mph /  0.5 km/h 2.0 mph /  3.2 km/h 87 % 0.00 in /  0 mm
01:18 50.9 °F /  10.5 °C 47.5 °F /  8.6 °C 29.88 in /  1011.7 hPa SSW 3.4 mph /  5.5 km/h 4.6 mph /  7.4 km/h 88 % 0.00 in /  0 mm
01:23 51.0 °F /  10.6 °C 48.2 °F /  9 °C 29.88 in /  1011.7 hPa SSW 1.4 mph /  2.3 km/h 3.5 mph /  5.6 km/h 90 % 0.00 in /  0 mm
01:28 51.2 °F /  10.7 °C 48.7 °F /  9.3 °C 29.88 in /  1011.7 hPa SSW 3.8 mph /  6.1 km/h 5.0 mph /  8 km/h 91 % 0.00 in /  0 mm
01:33 51.3 °F /  10.7 °C 48.8 °F /  9.3 °C 29.88 in /  1011.7 hPa SSW 2.7 mph /  4.3 km/h 3.5 mph /  5.6 km/h 91 % 0.00 in /  0 mm
01:38 51.5 °F /  10.8 °C 49.0 °F /  9.4 °C 29.89 in /  1012.1 hPa SSW 3.8 mph /  6.1 km/h 4.6 mph /  7.4 km/h 91 % 0.00 in /  0 mm
01:43 51.7 °F /  10.9 °C 49.5 °F /  9.7 °C 29.88 in /  1011.7 hPa SSW 2.0 mph /  3.2 km/h 4.6 mph /  7.4 km/h 92 % 0.00 in /  0 mm
01:48 51.8 °F /  11 °C 49.3 °F /  9.6 °C 29.89 in /  1012.1 hPa SW 2.4 mph /  3.9 km/h 3.5 mph /  5.6 km/h 91 % 0.00 in /  0 mm
01:54 51.9 °F /  11.1 °C 49.4 °F /  9.7 °C 29.89 in /  1012.1 hPa SW 0.6 mph /  1 km/h 3.5 mph /  5.6 km/h 91 % 0.00 in /  0 mm
01:59 52.0 °F /  11.1 °C 49.5 °F /  9.7 °C 29.89 in /  1012.1 hPa SSW 1.8 mph /  2.9 km/h 3.0 mph /  4.8 km/h 91 % 0.00 in /  0 mm
02:04 52.0 °F /  11.1 °C 49.5 °F /  9.7 °C 29.88 in /  1011.7 hPa SSW 0.9 mph /  1.4 km/h 3.5 mph /  5.6 km/h 91 % 0.00 in /  0 mm
02:09 52.1 °F /  11.2 °C 49.6 °F /  9.8 °C 29.89 in /  1012.1 hPa Calm     91 % 0.00 in /  0 mm
02:14 52.1 °F /  11.2 °C 49.6 °F /  9.8 °C 29.89 in /  1012.1 hPa SSW 0.3 mph /  0.5 km/h 2.3 mph /  3.7 km/h 91 % 0.00 in /  0 mm
02:19 52.1 °F /  11.2 °C 49.3 °F /  9.6 °C 29.89 in /  1012.1 hPa SSW 2.0 mph /  3.2 km/h 3.5 mph /  5.6 km/h 90 % 0.00 in /  0 mm
02:24 52.1 °F /  11.2 °C 49.3 °F /  9.6 °C 29.89 in /  1012.1 hPa SW 1.0 mph /  1.6 km/h 3.5 mph /  5.6 km/h 90 % 0.00 in /  0 mm
02:29 52.0 °F /  11.1 °C 49.2 °F /  9.6 °C 29.89 in /  1012.1 hPa SSW 0.3 mph /  0.5 km/h 3.5 mph /  5.6 km/h 90 % 0.00 in /  0 mm
02:34 51.9 °F /  11.1 °C 49.1 °F /  9.5 °C 29.89 in /  1012.1 hPa SSW 2.0 mph /  3.2 km/h 3.5 mph /  5.6 km/h 90 % 0.00 in /  0 mm
02:39 51.9 °F /  11.1 °C 49.1 °F /  9.5 °C 29.89 in /  1012.1 hPa SW 1.0 mph /  1.6 km/h 3.5 mph /  5.6 km/h 90 % 0.00 in /  0 mm
02:44 51.8 °F /  11 °C 49.0 °F /  9.4 °C 29.89 in /  1012.1 hPa South 2.6 mph /  4.2 km/h 6.0 mph /  9.7 km/h 90 % 0.00 in /  0 mm
02:49 51.7 °F /  10.9 °C 48.9 °F /  9.4 °C 29.89 in /  1012.1 hPa SSW 1.5 mph /  2.4 km/h 4.6 mph /  7.4 km/h 90 % 0.00 in /  0 mm
02:54 51.6 °F /  10.9 °C 48.8 °F /  9.3 °C 29.89 in /  1012.1 hPa SSW 1.5 mph /  2.4 km/h 4.6 mph /  7.4 km/h 90 % 0.00 in /  0 mm
02:59 51.5 °F /  10.8 °C 48.7 °F /  9.3 °C 29.89 in /  1012.1 hPa SW 1.6 mph /  2.6 km/h 4.6 mph /  7.4 km/h 90 % 0.00 in /  0 mm
03:04 51.4 °F /  10.8 °C 48.6 °F /  9.2 °C 29.89 in /  1012.1 hPa SW 2.2 mph /  3.5 km/h 4.6 mph /  7.4 km/h 90 % 0.00 in /  0 mm
03:09 51.4 °F /  10.8 °C 48.9 °F /  9.4 °C 29.89 in /  1012.1 hPa SW 1.1 mph /  1.8 km/h 2.3 mph /  3.7 km/h 91 % 0.00 in /  0 mm
03:14 51.4 °F /  10.8 °C 48.9 °F /  9.4 °C 29.89 in /  1012.1 hPa SW 1.1 mph /  1.8 km/h 2.3 mph /  3.7 km/h 91 % 0.00 in /  0 mm
03:19 51.3 °F /  10.7 °C 48.8 °F /  9.3 °C 29.89 in /  1012.1 hPa SSW 2.3 mph /  3.7 km/h 3.5 mph /  5.6 km/h 91 % 0.00 in /  0 mm
03:24 51.3 °F /  10.7 °C 48.8 °F /  9.3 °C 29.89 in /  1012.1 hPa SW 2.4 mph /  3.9 km/h 3.5 mph /  5.6 km/h 91 % 0.00 in /  0 mm
03:29 51.3 °F /  10.7 °C 48.8 °F /  9.3 °C 29.89 in /  1012.1 hPa SW 0.7 mph /  1.1 km/h 2.3 mph /  3.7 km/h 91 % 0.00 in /  0 mm
03:34 51.3 °F /  10.7 °C 48.8 °F /  9.3 °C 29.89 in /  1012.1 hPa SW 1.4 mph /  2.3 km/h 2.3 mph /  3.7 km/h 91 % 0.00 in /  0 mm
03:40 51.2 °F /  10.7 °C 48.7 °F /  9.3 °C 29.89 in /  1012.1 hPa South 0.9 mph /  1.4 km/h 3.5 mph /  5.6 km/h 91 % 0.00 in /  0 mm
03:45 51.2 °F /  10.7 °C 48.7 °F /  9.3 °C 29.89 in /  1012.1 hPa WNW 0.4 mph /  0.6 km/h 3.5 mph /  5.6 km/h 91 % 0.00 in /  0 mm
03:50 51.2 °F /  10.7 °C 48.7 °F /  9.3 °C 29.89 in /  1012.1 hPa SW 2.5 mph /  4 km/h 3.5 mph /  5.6 km/h 91 % 0.00 in /  0 mm
03:55 51.2 °F /  10.7 °C 48.7 °F /  9.3 °C 29.89 in /  1012.1 hPa SW 0.9 mph /  1.4 km/h 2.0 mph /  3.2 km/h 91 % 0.00 in /  0 mm
04:00 51.2 °F /  10.7 °C 48.7 °F /  9.3 °C 29.89 in /  1012.1 hPa Calm   1.2 mph /  1.9 km/h 91 % 0.00 in /  0 mm
04:05 51.2 °F /  10.7 °C 49.0 °F /  9.4 °C 29.89 in /  1012.1 hPa SW 1.5 mph /  2.4 km/h 2.3 mph /  3.7 km/h 92 % 0.00 in /  0 mm
04:10 51.2 °F /  10.7 °C 49.0 °F /  9.4 °C 29.90 in /  1012.4 hPa SW 0.6 mph /  1 km/h 3.0 mph /  4.8 km/h 92 % 0.00 in /  0 mm
04:15 51.2 °F /  10.7 °C 49.0 °F /  9.4 °C 29.89 in /  1012.1 hPa SW 2.7 mph /  4.3 km/h 4.0 mph /  6.4 km/h 92 % 0.00 in /  0 mm
04:20 51.2 °F /  10.7 °C 49.0 °F /  9.4 °C 29.90 in /  1012.4 hPa WSW 2.3 mph /  3.7 km/h 4.0 mph /  6.4 km/h 92 % 0.00 in /  0 mm
04:25 51.2 °F /  10.7 °C 49.2 °F /  9.6 °C 29.90 in /  1012.4 hPa SSW 2.2 mph /  3.5 km/h 5.8 mph /  9.3 km/h 93 % 0.00 in /  0 mm
04:30 51.2 °F /  10.7 °C 49.2 °F /  9.6 °C 29.90 in /  1012.4 hPa SSW 2.5 mph /  4 km/h 5.0 mph /  8 km/h 93 % 0.00 in /  0 mm
04:35 51.2 °F /  10.7 °C 49.2 °F /  9.6 °C 29.90 in /  1012.4 hPa SW 1.4 mph /  2.3 km/h 3.5 mph /  5.6 km/h 93 % 0.00 in /  0 mm
04:40 51.2 °F /  10.7 °C 49.0 °F /  9.4 °C 29.90 in /  1012.4 hPa WSW 1.7 mph /  2.7 km/h 3.5 mph /  5.6 km/h 92 % 0.00 in /  0 mm
04:45 51.2 °F /  10.7 °C 49.0 °F /  9.4 °C 29.90 in /  1012.4 hPa SW 2.7 mph /  4.3 km/h 3.5 mph /  5.6 km/h 92 % 0.00 in /  0 mm
04:50 51.1 °F /  10.6 °C 48.9 °F /  9.4 °C 29.90 in /  1012.4 hPa SSW 1.8 mph /  2.9 km/h 3.5 mph /  5.6 km/h 92 % 0.00 in /  0 mm
04:55 51.1 °F /  10.6 °C 48.9 °F /  9.4 °C 29.90 in /  1012.4 hPa SW 1.4 mph /  2.3 km/h 2.3 mph /  3.7 km/h 92 % 0.00 in /  0 mm
05:00 51.1 °F /  10.6 °C 48.9 °F /  9.4 °C 29.90 in /  1012.4 hPa SW 2.2 mph /  3.5 km/h 3.5 mph /  5.6 km/h 92 % 0.00 in /  0 mm
05:05 51.1 °F /  10.6 °C 48.9 °F /  9.4 °C 29.90 in /  1012.4 hPa SSW 1.8 mph /  2.9 km/h 3.5 mph /  5.6 km/h 92 % 0.00 in /  0 mm
05:10 51.0 °F /  10.6 °C 48.8 °F /  9.3 °C 29.90 in /  1012.4 hPa SSW 0.8 mph /  1.3 km/h 2.3 mph /  3.7 km/h 92 % 0.00 in /  0 mm
05:15 51.0 °F /  10.6 °C 48.8 °F /  9.3 °C 29.90 in /  1012.4 hPa SW 0.7 mph /  1.1 km/h 2.3 mph /  3.7 km/h 92 % 0.00 in /  0 mm
05:20 51.0 °F /  10.6 °C 48.8 °F /  9.3 °C 29.90 in /  1012.4 hPa WSW 0.7 mph /  1.1 km/h 3.0 mph /  4.8 km/h 92 % 0.00 in /  0 mm
05:25 51.0 °F /  10.6 °C 49.0 °F /  9.4 °C 29.91 in /  1012.8 hPa WSW 2.9 mph /  4.7 km/h 3.5 mph /  5.6 km/h 93 % 0.00 in /  0 mm
05:31 51.1 °F /  10.6 °C 49.1 °F /  9.5 °C 29.91 in /  1012.8 hPa WSW 1.6 mph /  2.6 km/h 2.3 mph /  3.7 km/h 93 % 0.00 in /  0 mm
05:36 51.1 °F /  10.6 °C 49.1 °F /  9.5 °C 29.91 in /  1012.8 hPa WSW 0.4 mph /  0.6 km/h 2.3 mph /  3.7 km/h 93 % 0.00 in /  0 mm
05:41 51.1 °F /  10.6 °C 49.1 °F /  9.5 °C 29.90 in /  1012.4 hPa WSW 0.2 mph /  0.3 km/h 2.3 mph /  3.7 km/h 93 % 0.00 in /  0 mm
05:46 51.1 °F /  10.6 °C 49.1 °F /  9.5 °C 29.90 in /  1012.4 hPa WSW 0.7 mph /  1.1 km/h 1.2 mph /  1.9 km/h 93 % 0.00 in /  0 mm
05:51 51.0 °F /  10.6 °C 49.0 °F /  9.4 °C 29.90 in /  1012.4 hPa SW 1.5 mph /  2.4 km/h 3.5 mph /  5.6 km/h 93 % 0.00 in /  0 mm
05:56 50.9 °F /  10.5 °C 48.9 °F /  9.4 °C 29.90 in /  1012.4 hPa Calm     93 % 0.00 in /  0 mm
06:01 50.8 °F /  10.4 °C 48.6 °F /  9.2 °C 29.90 in /  1012.4 hPa Calm     92 % 0.00 in /  0 mm
06:06 50.6 °F /  10.3 °C 48.4 °F /  9.1 °C 29.90 in /  1012.4 hPa SW 0.2 mph /  0.3 km/h 2.0 mph /  3.2 km/h 92 % 0.00 in /  0 mm
06:11 50.5 °F /  10.3 °C 48.3 °F /  9.1 °C 29.90 in /  1012.4 hPa Calm     92 % 0.00 in /  0 mm
06:16 50.4 °F /  10.2 °C 48.2 °F /  9 °C 29.90 in /  1012.4 hPa Calm     92 % 0.00 in /  0 mm
06:21 50.1 °F /  10.1 °C 47.6 °F /  8.7 °C 29.90 in /  1012.4 hPa Calm     91 % 0.00 in /  0 mm
06:26 49.7 °F /  9.8 °C 47.2 °F /  8.4 °C 29.90 in /  1012.4 hPa Calm     91 % 0.00 in /  0 mm
06:31 49.4 °F /  9.7 °C 46.9 °F /  8.3 °C 29.90 in /  1012.4 hPa SSW 1.3 mph /  2.1 km/h 1.3 mph /  2.1 km/h 91 % 0.00 in /  0 mm
06:36 49.4 °F /  9.7 °C 47.2 °F /  8.4 °C 29.90 in /  1012.4 hPa SW 2.5 mph /  4 km/h 4.6 mph /  7.4 km/h 92 % 0.00 in /  0 mm
06:41 49.6 °F /  9.8 °C 47.7 °F /  8.7 °C 29.91 in /  1012.8 hPa West 2.5 mph /  4 km/h 4.6 mph /  7.4 km/h 93 % 0.00 in /  0 mm
06:46 50.0 °F /  10 °C 48.3 °F /  9.1 °C 29.91 in /  1012.8 hPa West 1.0 mph /  1.6 km/h 3.5 mph /  5.6 km/h 94 % 0.00 in /  0 mm
06:51 50.1 °F /  10.1 °C 48.7 °F /  9.3 °C 29.91 in /  1012.8 hPa Calm     95 % 0.00 in /  0 mm
06:56 50.3 °F /  10.2 °C 48.9 °F /  9.4 °C 29.91 in /  1012.8 hPa SSW 0.8 mph /  1.3 km/h 4.0 mph /  6.4 km/h 95 % 0.00 in /  0 mm
07:01 50.5 °F /  10.3 °C 49.1 °F /  9.5 °C 29.90 in /  1012.4 hPa SE 0.6 mph /  1 km/h 2.3 mph /  3.7 km/h 95 % 0.00 in /  0 mm
07:06 50.8 °F /  10.4 °C 49.7 °F /  9.8 °C 29.90 in /  1012.4 hPa South 1.1 mph /  1.8 km/h 4.0 mph /  6.4 km/h 96 % 0.00 in /  0 mm
07:11 51.0 °F /  10.6 °C 49.6 °F /  9.8 °C 29.91 in /  1012.8 hPa South 2.5 mph /  4 km/h 4.6 mph /  7.4 km/h 95 % 0.00 in /  0 mm
07:16 51.2 °F /  10.7 °C 49.8 °F /  9.9 °C 29.91 in /  1012.8 hPa SSW 4.9 mph /  7.9 km/h 6.0 mph /  9.7 km/h 95 % 0.00 in /  0 mm
07:22 51.4 °F /  10.8 °C 50.0 °F /  10 °C 29.91 in /  1012.8 hPa South 5.0 mph /  8 km/h 8.1 mph /  13 km/h 95 % 0.00 in /  0 mm
07:27 51.6 °F /  10.9 °C 50.2 °F /  10.1 °C 29.91 in /  1012.8 hPa SSW 4.5 mph /  7.2 km/h 8.1 mph /  13 km/h 95 % 0.00 in /  0 mm
07:32 51.7 °F /  10.9 °C 50.3 °F /  10.2 °C 29.91 in /  1012.8 hPa South 3.5 mph /  5.6 km/h 4.6 mph /  7.4 km/h 95 % 0.00 in /  0 mm
07:37 52.1 °F /  11.2 °C 50.7 °F /  10.4 °C 29.91 in /  1012.8 hPa South 3.7 mph /  6 km/h 8.1 mph /  13 km/h 95 % 0.00 in /  0 mm
07:42 52.4 °F /  11.3 °C 51.0 °F /  10.6 °C 29.91 in /  1012.8 hPa SSW 2.5 mph /  4 km/h 3.5 mph /  5.6 km/h 95 % 0.00 in /  0 mm
07:47 53.1 °F /  11.7 °C 51.7 °F /  10.9 °C 29.91 in /  1012.8 hPa SSW 4.0 mph /  6.4 km/h 5.8 mph /  9.3 km/h 95 % 0.00 in /  0 mm
07:52 53.7 °F /  12.1 °C 52.0 °F /  11.1 °C 29.91 in /  1012.8 hPa South 6.4 mph /  10.3 km/h 8.0 mph /  12.9 km/h 94 % 0.00 in /  0 mm
07:57 54.6 °F /  12.6 °C 52.9 °F /  11.6 °C 29.91 in /  1012.8 hPa SW 3.9 mph /  6.3 km/h 11.5 mph /  18.5 km/h 94 % 0.00 in /  0 mm
08:02 55.4 °F /  13 °C 53.4 °F /  11.9 °C 29.92 in /  1013.1 hPa SSW 4.4 mph /  7.1 km/h 10.4 mph /  16.7 km/h 93 % 0.00 in /  0 mm
08:07 56.2 °F /  13.4 °C 53.9 °F /  12.2 °C 29.92 in /  1013.1 hPa SSW 7.1 mph /  11.4 km/h 11.5 mph /  18.5 km/h 92 % 0.00 in /  0 mm
08:12 56.9 °F /  13.8 °C 54.0 °F /  12.2 °C 29.92 in /  1013.1 hPa SSW 4.5 mph /  7.2 km/h 12.7 mph /  20.4 km/h 90 % 0.00 in /  0 mm
08:17 57.4 °F /  14.1 °C 53.9 °F /  12.2 °C 29.92 in /  1013.1 hPa WSW 6.0 mph /  9.7 km/h 11.5 mph /  18.5 km/h 88 % 0.00 in /  0 mm
08:22 57.8 °F /  14.3 °C 54.0 °F /  12.2 °C 29.92 in /  1013.1 hPa SW 5.9 mph /  9.5 km/h 8.1 mph /  13 km/h 87 % 0.00 in /  0 mm
08:27 58.1 °F /  14.5 °C 53.9 °F /  12.2 °C 29.92 in /  1013.1 hPa SW 5.8 mph /  9.3 km/h 10.4 mph /  16.7 km/h 86 % 0.00 in /  0 mm
08:32 58.6 °F /  14.8 °C 54.1 °F /  12.3 °C 29.92 in /  1013.1 hPa SW 5.4 mph /  8.7 km/h 6.9 mph /  11.1 km/h 85 % 0.00 in /  0 mm
08:37 59.2 °F /  15.1 °C 54.7 °F /  12.6 °C 29.93 in /  1013.4 hPa WSW 7.2 mph /  11.6 km/h 11.5 mph /  18.5 km/h 85 % 0.00 in /  0 mm
08:42 59.9 °F /  15.5 °C 55.4 °F /  13 °C 29.93 in /  1013.4 hPa SW 5.0 mph /  8 km/h 10.4 mph /  16.7 km/h 85 % 0.00 in /  0 mm
08:47 60.4 °F /  15.8 °C 55.2 °F /  12.9 °C 29.93 in /  1013.4 hPa SW 3.6 mph /  5.8 km/h 11.5 mph /  18.5 km/h 83 % 0.00 in /  0 mm
08:52 60.7 °F /  15.9 °C 54.8 °F /  12.7 °C 29.93 in /  1013.4 hPa WNW 2.2 mph /  3.5 km/h 4.0 mph /  6.4 km/h 81 % 0.00 in /  0 mm
08:57 60.4 °F /  15.8 °C 53.2 °F /  11.8 °C 29.93 in /  1013.4 hPa West 2.7 mph /  4.3 km/h 4.0 mph /  6.4 km/h 77 % 0.00 in /  0 mm
08:58 60.3 °F /  15.7 °C 53.1 °F /  11.7 °C 29.93 in /  1013.4 hPa WNW 2.5 mph /  4 km/h 3.5 mph /  5.6 km/h 77 % 0.00 in /  0 mm
09:03 59.9 °F /  15.5 °C 53.0 °F /  11.7 °C 29.93 in /  1013.4 hPa WNW 1.6 mph /  2.6 km/h 3.5 mph /  5.6 km/h 78 % 0.00 in /  0 mm
09:08 59.6 °F /  15.3 °C 52.7 °F /  11.5 °C 29.93 in /  1013.4 hPa WNW 2.3 mph /  3.7 km/h 3.5 mph /  5.6 km/h 78 % 0.00 in /  0 mm
09:14 59.3 °F /  15.2 °C 52.1 °F /  11.2 °C 29.93 in /  1013.4 hPa WNW 1.4 mph /  2.3 km/h 2.3 mph /  3.7 km/h 77 % 0.00 in /  0 mm
09:19 59.0 °F /  15 °C 51.4 °F /  10.8 °C 29.93 in /  1013.4 hPa WNW 2.6 mph /  4.2 km/h 3.5 mph /  5.6 km/h 76 % 0.00 in /  0 mm
09:24 58.8 °F /  14.9 °C 51.6 °F /  10.9 °C 29.93 in /  1013.4 hPa NW 2.1 mph /  3.4 km/h 4.0 mph /  6.4 km/h 77 % 0.00 in /  0 mm
09:29 58.8 °F /  14.9 °C 51.6 °F /  10.9 °C 29.93 in /  1013.4 hPa NW 0.7 mph /  1.1 km/h 2.3 mph /  3.7 km/h 77 % 0.00 in /  0 mm
09:34 59.5 °F /  15.3 °C 53.0 °F /  11.7 °C 29.94 in /  1013.8 hPa Calm     79 % 0.00 in /  0 mm
09:39 59.7 °F /  15.4 °C 51.4 °F /  10.8 °C 29.94 in /  1013.8 hPa NNW 0.2 mph /  0.3 km/h 2.3 mph /  3.7 km/h 74 % 0.00 in /  0 mm
09:44 59.7 °F /  15.4 °C 51.4 °F /  10.8 °C 29.94 in /  1013.8 hPa NNW 0.1 mph /  0.2 km/h 1.0 mph /  1.6 km/h 74 % 0.00 in /  0 mm
09:49 59.0 °F /  15 °C 50.0 °F /  10 °C 29.93 in /  1013.4 hPa NNE 2.5 mph /  4 km/h 3.5 mph /  5.6 km/h 72 % 0.00 in /  0 mm
09:54 57.9 °F /  14.4 °C 48.9 °F /  9.4 °C 29.94 in /  1013.8 hPa NE 1.3 mph /  2.1 km/h 3.5 mph /  5.6 km/h 72 % 0.00 in /  0 mm
09:59 57.6 °F /  14.2 °C 49.7 °F /  9.8 °C 29.93 in /  1013.4 hPa NE 2.2 mph /  3.5 km/h 5.0 mph /  8 km/h 75 % 0.00 in /  0 mm
10:04 57.4 °F /  14.1 °C 49.5 °F /  9.7 °C 29.94 in /  1013.8 hPa NNE 0.4 mph /  0.6 km/h 3.5 mph /  5.6 km/h 75 % 0.00 in /  0 mm
10:09 57.3 °F /  14.1 °C 49.1 °F /  9.5 °C 29.93 in /  1013.4 hPa ENE 3.3 mph /  5.3 km/h 5.0 mph /  8 km/h 74 % 0.00 in /  0 mm
10:14 56.2 °F /  13.4 °C 48.0 °F /  8.9 °C 29.93 in /  1013.4 hPa NNE 2.2 mph /  3.5 km/h 3.5 mph /  5.6 km/h 74 % 0.00 in /  0 mm
10:19 55.9 °F /  13.3 °C 48.8 °F /  9.3 °C 29.93 in /  1013.4 hPa NNE 0.6 mph /  1 km/h 2.3 mph /  3.7 km/h 77 % 0.00 in /  0 mm
10:24 56.0 °F /  13.3 °C 49.6 °F /  9.8 °C 29.93 in /  1013.4 hPa NNE 1.1 mph /  1.8 km/h 3.5 mph /  5.6 km/h 79 % 0.00 in /  0 mm
10:29 56.8 °F /  13.8 °C 50.7 °F /  10.4 °C 29.93 in /  1013.4 hPa Calm   1.2 mph /  1.9 km/h 80 % 0.00 in /  0 mm
10:34 57.7 °F /  14.3 °C 51.9 °F /  11.1 °C 29.93 in /  1013.4 hPa NE 1.5 mph /  2.4 km/h 3.5 mph /  5.6 km/h 81 % 0.00 in /  0 mm
10:39 58.8 °F /  14.9 °C 53.3 °F /  11.8 °C 29.93 in /  1013.4 hPa WSW 1.1 mph /  1.8 km/h 4.0 mph /  6.4 km/h 82 % 0.00 in /  0 mm
10:44 60.2 °F /  15.7 °C 55.7 °F /  13.2 °C 29.92 in /  1013.1 hPa SSW 5.4 mph /  8.7 km/h 10.4 mph /  16.7 km/h 85 % 0.00 in /  0 mm
10:49 62.4 °F /  16.9 °C 56.8 °F /  13.8 °C 29.92 in /  1013.1 hPa WSW 7.1 mph /  11.4 km/h 11.5 mph /  18.5 km/h 82 % 0.00 in /  0 mm
10:54 64.6 °F /  18.1 °C 57.6 °F /  14.2 °C 29.92 in /  1013.1 hPa SSE 2.4 mph /  3.9 km/h 4.6 mph /  7.4 km/h 78 % 0.00 in /  0 mm
10:59 66.2 °F /  19 °C 58.0 °F /  14.4 °C 29.92 in /  1013.1 hPa SSE 6.5 mph /  10.5 km/h 10.4 mph /  16.7 km/h 75 % 0.00 in /  0 mm
11:05 67.6 °F /  19.8 °C 58.6 °F /  14.8 °C 29.92 in /  1013.1 hPa South 2.7 mph /  4.3 km/h 6.0 mph /  9.7 km/h 73 % 0.00 in /  0 mm
11:10 68.9 °F /  20.5 °C 58.7 °F /  14.8 °C 29.92 in /  1013.1 hPa SW 5.3 mph /  8.5 km/h 7.0 mph /  11.3 km/h 70 % 0.00 in /  0 mm
11:15 69.7 °F /  20.9 °C 58.3 °F /  14.6 °C 29.91 in /  1012.8 hPa SSW 4.7 mph /  7.6 km/h 8.1 mph /  13 km/h 67 % 0.00 in /  0 mm
11:20 70.1 °F /  21.2 °C 58.2 °F /  14.6 °C 29.91 in /  1012.8 hPa SSE 6.1 mph /  9.8 km/h 13.8 mph /  22.2 km/h 66 % 0.00 in /  0 mm
11:25 70.4 °F /  21.3 °C 58.5 °F /  14.7 °C 29.91 in /  1012.8 hPa South 6.4 mph /  10.3 km/h 10.0 mph /  16.1 km/h 66 % 0.00 in /  0 mm
11:30 70.6 °F /  21.4 °C 58.7 °F /  14.8 °C 29.91 in /  1012.8 hPa SSW 3.2 mph /  5.1 km/h 7.0 mph /  11.3 km/h 66 % 0.00 in /  0 mm
11:35 71.0 °F /  21.7 °C 58.6 °F /  14.8 °C 29.90 in /  1012.4 hPa SSE 7.8 mph /  12.6 km/h 11.5 mph /  18.5 km/h 65 % 0.00 in /  0 mm
11:40 71.1 °F /  21.7 °C 58.7 °F /  14.8 °C 29.90 in /  1012.4 hPa South 3.3 mph /  5.3 km/h 6.9 mph /  11.1 km/h 65 % 0.00 in /  0 mm
11:45 71.3 °F /  21.8 °C 58.5 °F /  14.7 °C 29.90 in /  1012.4 hPa SSW 4.9 mph /  7.9 km/h 5.8 mph /  9.3 km/h 64 % 0.00 in /  0 mm
11:50 71.3 °F /  21.8 °C 58.5 °F /  14.7 °C 29.90 in /  1012.4 hPa SSW 6.5 mph /  10.5 km/h 9.2 mph /  14.8 km/h 64 % 0.00 in /  0 mm
11:55 71.3 °F /  21.8 °C 58.1 °F /  14.5 °C 29.90 in /  1012.4 hPa SSW 5.9 mph /  9.5 km/h 8.1 mph /  13 km/h 63 % 0.00 in /  0 mm
12:00 71.3 °F /  21.8 °C 58.1 °F /  14.5 °C 29.90 in /  1012.4 hPa SW 6.6 mph /  10.6 km/h 9.2 mph /  14.8 km/h 63 % 0.00 in /  0 mm
12:05 71.4 °F /  21.9 °C 58.1 °F /  14.5 °C 29.90 in /  1012.4 hPa SSW 8.3 mph /  13.4 km/h 13.0 mph /  20.9 km/h 63 % 0.00 in /  0 mm
12:10 71.4 °F /  21.9 °C 58.1 °F /  14.5 °C 29.89 in /  1012.1 hPa SSW 7.0 mph /  11.3 km/h 9.2 mph /  14.8 km/h 63 % 0.00 in /  0 mm
12:15 71.3 °F /  21.8 °C 58.1 °F /  14.5 °C 29.89 in /  1012.1 hPa South 5.4 mph /  8.7 km/h 8.1 mph /  13 km/h 63 % 0.00 in /  0 mm
12:20 71.5 °F /  21.9 °C 58.2 °F /  14.6 °C 29.89 in /  1012.1 hPa South 7.6 mph /  12.2 km/h 11.5 mph /  18.5 km/h 63 % 0.00 in /  0 mm
12:25 71.5 °F /  21.9 °C 58.2 °F /  14.6 °C 29.89 in /  1012.1 hPa SE 4.1 mph /  6.6 km/h 9.0 mph /  14.5 km/h 63 % 0.00 in /  0 mm
12:30 71.3 °F /  21.8 °C 58.1 °F /  14.5 °C 29.88 in /  1011.7 hPa South 7.8 mph /  12.6 km/h 12.7 mph /  20.4 km/h 63 % 0.00 in /  0 mm
12:35 71.1 °F /  21.7 °C 57.9 °F /  14.4 °C 29.88 in /  1011.7 hPa SSW 8.7 mph /  14 km/h 15.0 mph /  24.1 km/h 63 % 0.00 in /  0 mm
12:40 71.0 °F /  21.7 °C 58.2 °F /  14.6 °C 29.88 in /  1011.7 hPa SW 7.7 mph /  12.4 km/h 11.5 mph /  18.5 km/h 64 % 0.00 in /  0 mm
12:45 71.2 °F /  21.8 °C 58.4 °F /  14.7 °C 29.88 in /  1011.7 hPa SW 6.8 mph /  10.9 km/h 11.5 mph /  18.5 km/h 64 % 0.00 in /  0 mm
12:50 71.4 °F /  21.9 °C 58.1 °F /  14.5 °C 29.88 in /  1011.7 hPa SSW 3.2 mph /  5.1 km/h 8.1 mph /  13 km/h 63 % 0.00 in /  0 mm
12:51 71.4 °F /  21.9 °C 58.1 °F /  14.5 °C 29.88 in /  1011.7 hPa SSW 2.4 mph /  3.9 km/h 8.1 mph /  13 km/h 63 % 0.00 in /  0 mm
12:56 71.6 °F /  22 °C 58.3 °F /  14.6 °C 29.87 in /  1011.4 hPa South 3.0 mph /  4.8 km/h 10.4 mph /  16.7 km/h 63 % 0.00 in /  0 mm
13:01 71.6 °F /  22 °C 58.3 °F /  14.6 °C 29.87 in /  1011.4 hPa SSE 8.1 mph /  13 km/h 11.5 mph /  18.5 km/h 63 % 0.00 in /  0 mm
13:06 71.4 °F /  21.9 °C 58.1 °F /  14.5 °C 29.87 in /  1011.4 hPa SW 9.5 mph /  15.3 km/h 12.7 mph /  20.4 km/h 63 % 0.00 in /  0 mm
13:11 71.5 °F /  21.9 °C 58.7 °F /  14.8 °C 29.86 in /  1011.1 hPa SSE 3.6 mph /  5.8 km/h 6.0 mph /  9.7 km/h 64 % 0.00 in /  0 mm
13:16 71.7 °F /  22.1 °C 58.4 °F /  14.7 °C 29.86 in /  1011.1 hPa SW 5.0 mph /  8 km/h 11.5 mph /  18.5 km/h 63 % 0.00 in /  0 mm
13:21 71.8 °F /  22.1 °C 58.5 °F /  14.7 °C 29.86 in /  1011.1 hPa SSW 5.5 mph /  8.9 km/h 8.1 mph /  13 km/h 63 % 0.00 in /  0 mm
13:26 71.8 °F /  22.1 °C 58.5 °F /  14.7 °C 29.86 in /  1011.1 hPa SSW 6.5 mph /  10.5 km/h 11.5 mph /  18.5 km/h 63 % 0.00 in /  0 mm
13:31 71.6 °F /  22 °C 58.3 °F /  14.6 °C 29.86 in /  1011.1 hPa South 6.3 mph /  10.1 km/h 15.0 mph /  24.1 km/h 63 % 0.00 in /  0 mm
13:36 71.6 °F /  22 °C 58.3 °F /  14.6 °C 29.86 in /  1011.1 hPa SW 7.1 mph /  11.4 km/h 9.2 mph /  14.8 km/h 63 % 0.00 in /  0 mm
13:41 71.7 °F /  22.1 °C 58.4 °F /  14.7 °C 29.86 in /  1011.1 hPa SSW 2.4 mph /  3.9 km/h 5.0 mph /  8 km/h 63 % 0.00 in /  0 mm
13:46 71.8 °F /  22.1 °C 59.0 °F /  15 °C 29.86 in /  1011.1 hPa South 5.0 mph /  8 km/h 11.5 mph /  18.5 km/h 64 % 0.00 in /  0 mm
13:51 71.7 °F /  22.1 °C 58.0 °F /  14.4 °C 29.86 in /  1011.1 hPa SE 5.5 mph /  8.9 km/h 9.2 mph /  14.8 km/h 62 % 0.00 in /  0 mm
13:56 71.0 °F /  21.7 °C 57.3 °F /  14.1 °C 29.86 in /  1011.1 hPa South 5.2 mph /  8.4 km/h 9.2 mph /  14.8 km/h 62 % 0.00 in /  0 mm
14:01 71.0 °F /  21.7 °C 57.8 °F /  14.3 °C 29.86 in /  1011.1 hPa SSW 5.4 mph /  8.7 km/h 7.0 mph /  11.3 km/h 63 % 0.00 in /  0 mm
14:07 71.0 °F /  21.7 °C 57.3 °F /  14.1 °C 29.85 in /  1010.7 hPa WSW 6.7 mph /  10.8 km/h 9.2 mph /  14.8 km/h 62 % 0.00 in /  0 mm
14:12 70.7 °F /  21.5 °C 57.0 °F /  13.9 °C 29.85 in /  1010.7 hPa SW 7.2 mph /  11.6 km/h 11.5 mph /  18.5 km/h 62 % 0.00 in /  0 mm
14:17 70.5 °F /  21.4 °C 57.3 °F /  14.1 °C 29.85 in /  1010.7 hPa SSW 7.1 mph /  11.4 km/h 13.8 mph /  22.2 km/h 63 % 0.00 in /  0 mm
14:22 70.2 °F /  21.2 °C 57.0 °F /  13.9 °C 29.85 in /  1010.7 hPa SW 7.0 mph /  11.3 km/h 11.5 mph /  18.5 km/h 63 % 0.00 in /  0 mm
14:27 70.1 °F /  21.2 °C 57.4 °F /  14.1 °C 29.85 in /  1010.7 hPa South 4.3 mph /  6.9 km/h 8.1 mph /  13 km/h 64 % 0.00 in /  0 mm
14:32 70.1 °F /  21.2 °C 57.4 °F /  14.1 °C 29.85 in /  1010.7 hPa South 7.6 mph /  12.2 km/h 11.5 mph /  18.5 km/h 64 % 0.00 in /  0 mm
14:37 70.1 °F /  21.2 °C 57.4 °F /  14.1 °C 29.85 in /  1010.7 hPa South 5.7 mph /  9.2 km/h 7.0 mph /  11.3 km/h 64 % 0.00 in /  0 mm
14:42 69.9 °F /  21.1 °C 56.7 °F /  13.7 °C 29.85 in /  1010.7 hPa SSW 5.8 mph /  9.3 km/h 16.1 mph /  25.9 km/h 63 % 0.00 in /  0 mm
14:47 69.6 °F /  20.9 °C 56.9 °F /  13.8 °C 29.85 in /  1010.7 hPa South 7.4 mph /  11.9 km/h 11.5 mph /  18.5 km/h 64 % 0.00 in /  0 mm
14:52 69.4 °F /  20.8 °C 56.7 °F /  13.7 °C 29.84 in /  1010.4 hPa South 3.1 mph /  5 km/h 10.4 mph /  16.7 km/h 64 % 0.00 in /  0 mm
14:57 69.3 °F /  20.7 °C 56.6 °F /  13.7 °C 29.85 in /  1010.7 hPa South 5.4 mph /  8.7 km/h 8.1 mph /  13 km/h 64 % 0.00 in /  0 mm
15:02 69.1 °F /  20.6 °C 56.4 °F /  13.6 °C 29.85 in /  1010.7 hPa SW 8.3 mph /  13.4 km/h 11.5 mph /  18.5 km/h 64 % 0.00 in /  0 mm
15:07 68.9 °F /  20.5 °C 56.6 °F /  13.7 °C 29.85 in /  1010.7 hPa SSW 1.7 mph /  2.7 km/h 4.0 mph /  6.4 km/h 65 % 0.00 in /  0 mm
15:12 68.8 °F /  20.4 °C 56.6 °F /  13.7 °C 29.85 in /  1010.7 hPa South 5.1 mph /  8.2 km/h 11.5 mph /  18.5 km/h 65 % 0.00 in /  0 mm
15:17 68.5 °F /  20.3 °C 56.3 °F /  13.5 °C 29.85 in /  1010.7 hPa South 3.9 mph /  6.3 km/h 9.2 mph /  14.8 km/h 65 % 0.00 in /  0 mm
15:22 68.2 °F /  20.1 °C 56.4 °F /  13.6 °C 29.85 in /  1010.7 hPa South 7.3 mph /  11.7 km/h 11.5 mph /  18.5 km/h 66 % 0.00 in /  0 mm
15:27 68.0 °F /  20 °C 56.6 °F /  13.7 °C 29.85 in /  1010.7 hPa South 7.5 mph /  12.1 km/h 10.4 mph /  16.7 km/h 67 % 0.00 in /  0 mm
15:32 67.9 °F /  19.9 °C 56.5 °F /  13.6 °C 29.85 in /  1010.7 hPa WSW 6.4 mph /  10.3 km/h 13.8 mph /  22.2 km/h 67 % 0.00 in /  0 mm
15:37 67.6 °F /  19.8 °C 56.7 °F /  13.7 °C 29.85 in /  1010.7 hPa South 3.1 mph /  5 km/h 4.6 mph /  7.4 km/h 68 % 0.00 in /  0 mm
15:42 67.4 °F /  19.7 °C 56.5 °F /  13.6 °C 29.85 in /  1010.7 hPa SSW 5.3 mph /  8.5 km/h 8.1 mph /  13 km/h 68 % 0.00 in /  0 mm
15:48 67.1 °F /  19.5 °C 56.6 °F /  13.7 °C 29.85 in /  1010.7 hPa South 5.9 mph /  9.5 km/h 11.5 mph /  18.5 km/h 69 % 0.00 in /  0 mm
15:53 66.8 °F /  19.3 °C 56.3 °F /  13.5 °C 29.85 in /  1010.7 hPa South 7.2 mph /  11.6 km/h 11.5 mph /  18.5 km/h 69 % 0.00 in /  0 mm
15:58 66.7 °F /  19.3 °C 56.6 °F /  13.7 °C 29.84 in /  1010.4 hPa South 2.2 mph /  3.5 km/h 8.0 mph /  12.9 km/h 70 % 0.00 in /  0 mm
16:03 66.5 °F /  19.2 °C 56.4 °F /  13.6 °C 29.85 in /  1010.7 hPa SW 4.0 mph /  6.4 km/h 5.8 mph /  9.3 km/h 70 % 0.00 in /  0 mm
16:08 66.4 °F /  19.1 °C 56.3 °F /  13.5 °C 29.85 in /  1010.7 hPa SSW 8.0 mph /  12.9 km/h 12.7 mph /  20.4 km/h 70 % 0.00 in /  0 mm
16:13 66.0 °F /  18.9 °C 56.3 °F /  13.5 °C 29.84 in /  1010.4 hPa SSW 6.7 mph /  10.8 km/h 12.7 mph /  20.4 km/h 71 % 0.00 in /  0 mm
16:15 65.9 °F /  18.8 °C 56.2 °F /  13.4 °C 29.84 in /  1010.4 hPa South 5.0 mph /  8 km/h 6.9 mph /  11.1 km/h 71 % 0.00 in /  0 mm
16:20 65.5 °F /  18.6 °C 56.2 °F /  13.4 °C 29.85 in /  1010.7 hPa South 9.0 mph /  14.5 km/h 16.0 mph /  25.7 km/h 72 % 0.00 in /  0 mm
16:25 65.1 °F /  18.4 °C 56.2 °F /  13.4 °C 29.84 in /  1010.4 hPa SSE 6.1 mph /  9.8 km/h 11.5 mph /  18.5 km/h 73 % 0.00 in /  0 mm
16:30 64.8 °F /  18.2 °C 55.9 °F /  13.3 °C 29.84 in /  1010.4 hPa South 6.2 mph /  10 km/h 8.1 mph /  13 km/h 73 % 0.00 in /  0 mm
16:35 64.6 °F /  18.1 °C 56.1 °F /  13.4 °C 29.84 in /  1010.4 hPa SSW 7.0 mph /  11.3 km/h 11.0 mph /  17.7 km/h 74 % 0.00 in /  0 mm
16:40 64.4 °F /  18 °C 55.9 °F /  13.3 °C 29.85 in /  1010.7 hPa South 7.0 mph /  11.3 km/h 11.0 mph /  17.7 km/h 74 % 0.00 in /  0 mm
16:45 64.2 °F /  17.9 °C 56.1 °F /  13.4 °C 29.85 in /  1010.7 hPa South 5.5 mph /  8.9 km/h 10.0 mph /  16.1 km/h 75 % 0.00 in /  0 mm
16:50 64.0 °F /  17.8 °C 55.9 °F /  13.3 °C 29.84 in /  1010.4 hPa South 8.9 mph /  14.3 km/h 12.0 mph /  19.3 km/h 75 % 0.00 in /  0 mm
16:55 63.8 °F /  17.7 °C 56.1 °F /  13.4 °C 29.85 in /  1010.7 hPa South 4.5 mph /  7.2 km/h 10.4 mph /  16.7 km/h 76 % 0.00 in /  0 mm
17:00 63.5 °F /  17.5 °C 55.8 °F /  13.2 °C 29.85 in /  1010.7 hPa SSE 6.9 mph /  11.1 km/h 11.5 mph /  18.5 km/h 76 % 0.00 in /  0 mm
17:05 63.3 °F /  17.4 °C 55.6 °F /  13.1 °C 29.84 in /  1010.4 hPa South 3.6 mph /  5.8 km/h 6.0 mph /  9.7 km/h 76 % 0.00 in /  0 mm
17:10 63.1 °F /  17.3 °C 55.4 °F /  13 °C 29.84 in /  1010.4 hPa SSE 3.2 mph /  5.1 km/h 7.0 mph /  11.3 km/h 76 % 0.00 in /  0 mm
17:15 63.0 °F /  17.2 °C 55.3 °F /  12.9 °C 29.84 in /  1010.4 hPa SSW 5.4 mph /  8.7 km/h 9.2 mph /  14.8 km/h 76 % 0.00 in /  0 mm
17:20 62.6 °F /  17 °C 55.3 °F /  12.9 °C 29.84 in /  1010.4 hPa South 4.1 mph /  6.6 km/h 11.5 mph /  18.5 km/h 77 % 0.00 in /  0 mm
17:25 62.2 °F /  16.8 °C 55.3 °F /  12.9 °C 29.84 in /  1010.4 hPa SSW 5.9 mph /  9.5 km/h 9.2 mph /  14.8 km/h 78 % 0.00 in /  0 mm
17:30 61.8 °F /  16.6 °C 55.2 °F /  12.9 °C 29.84 in /  1010.4 hPa SSW 3.4 mph /  5.5 km/h 6.9 mph /  11.1 km/h 79 % 0.00 in /  0 mm
17:35 61.6 °F /  16.4 °C 55.0 °F /  12.8 °C 29.84 in /  1010.4 hPa South 6.9 mph /  11.1 km/h 10.4 mph /  16.7 km/h 79 % 0.00 in /  0 mm
17:40 61.3 °F /  16.3 °C 55.1 °F /  12.8 °C 29.84 in /  1010.4 hPa SSW 5.8 mph /  9.3 km/h 10.4 mph /  16.7 km/h 80 % 0.00 in /  0 mm
17:45 61.0 °F /  16.1 °C 55.1 °F /  12.8 °C 29.84 in /  1010.4 hPa SSE 3.6 mph /  5.8 km/h 10.4 mph /  16.7 km/h 81 % 0.00 in /  0 mm
17:50 60.8 °F /  16 °C 55.3 °F /  12.9 °C 29.84 in /  1010.4 hPa South 6.4 mph /  10.3 km/h 11.5 mph /  18.5 km/h 82 % 0.00 in /  0 mm
17:56 60.6 °F /  15.9 °C 55.1 °F /  12.8 °C 29.84 in /  1010.4 hPa South 2.5 mph /  4 km/h 5.8 mph /  9.3 km/h 82 % 0.00 in /  0 mm
18:01 60.4 °F /  15.8 °C 55.2 °F /  12.9 °C 29.85 in /  1010.7 hPa South 3.9 mph /  6.3 km/h 8.1 mph /  13 km/h 83 % 0.00 in /  0 mm
18:06 60.1 °F /  15.6 °C 55.2 °F /  12.9 °C 29.85 in /  1010.7 hPa SSW 4.1 mph /  6.6 km/h 10.4 mph /  16.7 km/h 84 % 0.00 in /  0 mm
18:11 59.8 °F /  15.4 °C 55.0 °F /  12.8 °C 29.85 in /  1010.7 hPa South 3.1 mph /  5 km/h 6.9 mph /  11.1 km/h 84 % 0.00 in /  0 mm
18:16 59.6 °F /  15.3 °C 55.1 °F /  12.8 °C 29.85 in /  1010.7 hPa South 5.1 mph /  8.2 km/h 9.0 mph /  14.5 km/h 85 % 0.00 in /  0 mm
18:21 59.4 °F /  15.2 °C 54.9 °F /  12.7 °C 29.85 in /  1010.7 hPa SSW 4.8 mph /  7.7 km/h 9.2 mph /  14.8 km/h 85 % 0.00 in /  0 mm
18:26 59.2 °F /  15.1 °C 55.0 °F /  12.8 °C 29.84 in /  1010.4 hPa South 6.2 mph /  10 km/h 9.2 mph /  14.8 km/h 86 % 0.00 in /  0 mm
18:31 59.0 °F /  15 °C 55.1 °F /  12.8 °C 29.84 in /  1010.4 hPa South 5.0 mph /  8 km/h 9.2 mph /  14.8 km/h 87 % 0.00 in /  0 mm
18:36 58.8 °F /  14.9 °C 54.9 °F /  12.7 °C 29.84 in /  1010.4 hPa SSE 5.2 mph /  8.4 km/h 10.4 mph /  16.7 km/h 87 % 0.00 in /  0 mm
18:41 58.7 °F /  14.8 °C 54.8 °F /  12.7 °C 29.84 in /  1010.4 hPa South 4.8 mph /  7.7 km/h 10.4 mph /  16.7 km/h 87 % 0.00 in /  0 mm
18:46 58.5 °F /  14.7 °C 54.6 °F /  12.6 °C 29.84 in /  1010.4 hPa South 5.5 mph /  8.9 km/h 9.2 mph /  14.8 km/h 87 % 0.00 in /  0 mm
18:51 58.5 °F /  14.7 °C 54.6 °F /  12.6 °C 29.84 in /  1010.4 hPa South 5.6 mph /  9 km/h 11.5 mph /  18.5 km/h 87 % 0.00 in /  0 mm
18:56 58.4 °F /  14.7 °C 54.5 °F /  12.5 °C 29.84 in /  1010.4 hPa South 5.7 mph /  9.2 km/h 9.2 mph /  14.8 km/h 87 % 0.00 in /  0 mm
19:01 58.3 °F /  14.6 °C 54.4 °F /  12.4 °C 29.85 in /  1010.7 hPa South 3.8 mph /  6.1 km/h 10.4 mph /  16.7 km/h 87 % 0.00 in /  0 mm
19:06 58.2 °F /  14.6 °C 54.3 °F /  12.4 °C 29.84 in /  1010.4 hPa South 5.0 mph /  8 km/h 11.5 mph /  18.5 km/h 87 % 0.00 in /  0 mm
19:11 58.1 °F /  14.5 °C 54.6 °F /  12.6 °C 29.84 in /  1010.4 hPa South 3.9 mph /  6.3 km/h 8.1 mph /  13 km/h 88 % 0.00 in /  0 mm
19:16 58.1 °F /  14.5 °C 54.6 °F /  12.6 °C 29.84 in /  1010.4 hPa South 4.4 mph /  7.1 km/h 7.0 mph /  11.3 km/h 88 % 0.00 in /  0 mm
19:21 58.1 °F /  14.5 °C 54.9 °F /  12.7 °C 29.84 in /  1010.4 hPa South 6.5 mph /  10.5 km/h 11.5 mph /  18.5 km/h 89 % 0.00 in /  0 mm
19:26 58.2 °F /  14.6 °C 55.0 °F /  12.8 °C 29.84 in /  1010.4 hPa South 7.9 mph /  12.7 km/h 13.8 mph /  22.2 km/h 89 % 0.00 in /  0 mm
19:31 58.3 °F /  14.6 °C 55.1 °F /  12.8 °C 29.84 in /  1010.4 hPa South 6.6 mph /  10.6 km/h 10.4 mph /  16.7 km/h 89 % 0.00 in /  0 mm
19:36 58.3 °F /  14.6 °C 55.1 °F /  12.8 °C 29.84 in /  1010.4 hPa SSW 4.3 mph /  6.9 km/h 9.2 mph /  14.8 km/h 89 % 0.00 in /  0 mm
19:41 58.3 °F /  14.6 °C 55.4 °F /  13 °C 29.84 in /  1010.4 hPa SSW 5.6 mph /  9 km/h 11.0 mph /  17.7 km/h 90 % 0.00 in /  0 mm
19:46 58.3 °F /  14.6 °C 55.4 °F /  13 °C 29.84 in /  1010.4 hPa South 4.7 mph /  7.6 km/h 9.2 mph /  14.8 km/h 90 % 0.00 in /  0 mm
19:51 58.2 °F /  14.6 °C 55.3 °F /  12.9 °C 29.84 in /  1010.4 hPa SSW 4.7 mph /  7.6 km/h 6.9 mph /  11.1 km/h 90 % 0.00 in /  0 mm
19:57 58.2 °F /  14.6 °C 55.0 °F /  12.8 °C 29.84 in /  1010.4 hPa SSW 3.5 mph /  5.6 km/h 6.9 mph /  11.1 km/h 89 % 0.00 in /  0 mm
20:02 58.1 °F /  14.5 °C 55.2 °F /  12.9 °C 29.84 in /  1010.4 hPa SSW 4.6 mph /  7.4 km/h 10.4 mph /  16.7 km/h 90 % 0.00 in /  0 mm
20:07 58.0 °F /  14.4 °C 55.1 °F /  12.8 °C 29.84 in /  1010.4 hPa SW 3.6 mph /  5.8 km/h 4.6 mph /  7.4 km/h 90 % 0.00 in /  0 mm
20:12 58.0 °F /  14.4 °C 55.1 °F /  12.8 °C 29.84 in /  1010.4 hPa SW 3.5 mph /  5.6 km/h 5.8 mph /  9.3 km/h 90 % 0.00 in /  0 mm
20:17 57.9 °F /  14.4 °C 55.3 °F /  12.9 °C 29.84 in /  1010.4 hPa SSW 3.1 mph /  5 km/h 4.6 mph /  7.4 km/h 91 % 0.00 in /  0 mm
20:22 57.9 °F /  14.4 °C 55.3 °F /  12.9 °C 29.84 in /  1010.4 hPa South 3.6 mph /  5.8 km/h 6.0 mph /  9.7 km/h 91 % 0.00 in /  0 mm
20:27 57.9 °F /  14.4 °C 55.3 °F /  12.9 °C 29.84 in /  1010.4 hPa SW 4.2 mph /  6.8 km/h 8.1 mph /  13 km/h 91 % 0.00 in /  0 mm
20:32 57.9 °F /  14.4 °C 55.3 °F /  12.9 °C 29.85 in /  1010.7 hPa SSW 5.1 mph /  8.2 km/h 6.9 mph /  11.1 km/h 91 % 0.00 in /  0 mm
20:37 57.9 °F /  14.4 °C 55.3 °F /  12.9 °C 29.84 in /  1010.4 hPa South 3.6 mph /  5.8 km/h 8.1 mph /  13 km/h 91 % 0.00 in /  0 mm
20:42 57.9 °F /  14.4 °C 55.3 °F /  12.9 °C 29.84 in /  1010.4 hPa SSW 4.3 mph /  6.9 km/h 5.0 mph /  8 km/h 91 % 0.00 in /  0 mm
20:47 57.8 °F /  14.3 °C 55.2 °F /  12.9 °C 29.84 in /  1010.4 hPa SSW 5.5 mph /  8.9 km/h 7.0 mph /  11.3 km/h 91 % 0.00 in /  0 mm
20:52 57.8 °F /  14.3 °C 55.2 °F /  12.9 °C 29.84 in /  1010.4 hPa SSW 3.9 mph /  6.3 km/h 8.1 mph /  13 km/h 91 % 0.00 in /  0 mm
20:57 57.7 °F /  14.3 °C 55.1 °F /  12.8 °C 29.84 in /  1010.4 hPa SSW 3.7 mph /  6 km/h 4.6 mph /  7.4 km/h 91 % 0.00 in /  0 mm
21:02 57.7 °F /  14.3 °C 55.4 °F /  13 °C 29.84 in /  1010.4 hPa SSW 4.7 mph /  7.6 km/h 10.0 mph /  16.1 km/h 92 % 0.00 in /  0 mm
21:07 57.6 °F /  14.2 °C 55.3 °F /  12.9 °C 29.84 in /  1010.4 hPa SSE 2.3 mph /  3.7 km/h 5.8 mph /  9.3 km/h 92 % 0.00 in /  0 mm
21:12 57.6 °F /  14.2 °C 55.3 °F /  12.9 °C 29.84 in /  1010.4 hPa SW 3.4 mph /  5.5 km/h 6.9 mph /  11.1 km/h 92 % 0.00 in /  0 mm
21:17 57.6 °F /  14.2 °C 55.3 °F /  12.9 °C 29.84 in /  1010.4 hPa SSW 3.7 mph /  6 km/h 6.9 mph /  11.1 km/h 92 % 0.00 in /  0 mm
21:22 57.6 °F /  14.2 °C 55.3 °F /  12.9 °C 29.84 in /  1010.4 hPa SSW 2.3 mph /  3.7 km/h 5.8 mph /  9.3 km/h 92 % 0.00 in /  0 mm
21:27 57.6 °F /  14.2 °C 55.6 °F /  13.1 °C 29.84 in /  1010.4 hPa SW 4.2 mph /  6.8 km/h 10.4 mph /  16.7 km/h 93 % 0.00 in /  0 mm
21:32 57.5 °F /  14.2 °C 55.5 °F /  13.1 °C 29.84 in /  1010.4 hPa SW 2.7 mph /  4.3 km/h 4.6 mph /  7.4 km/h 93 % 0.00 in /  0 mm
21:37 57.5 °F /  14.2 °C 55.5 °F /  13.1 °C 29.84 in /  1010.4 hPa South 3.3 mph /  5.3 km/h 5.0 mph /  8 km/h 93 % 0.00 in /  0 mm
21:42 57.4 °F /  14.1 °C 55.4 °F /  13 °C 29.84 in /  1010.4 hPa South 4.4 mph /  7.1 km/h 6.9 mph /  11.1 km/h 93 % 0.00 in /  0 mm
21:47 57.5 °F /  14.2 °C 55.5 °F /  13.1 °C 29.83 in /  1010 hPa SSE 1.7 mph /  2.7 km/h 6.9 mph /  11.1 km/h 93 % 0.00 in /  0 mm
21:53 57.5 °F /  14.2 °C 55.8 °F /  13.2 °C 29.84 in /  1010.4 hPa South 4.6 mph /  7.4 km/h 7.0 mph /  11.3 km/h 94 % 0.00 in /  0 mm
21:58 57.5 °F /  14.2 °C 55.8 °F /  13.2 °C 29.83 in /  1010 hPa South 4.1 mph /  6.6 km/h 8.1 mph /  13 km/h 94 % 0.00 in /  0 mm
22:03 57.5 °F /  14.2 °C 55.8 °F /  13.2 °C 29.83 in /  1010 hPa SSW 5.5 mph /  8.9 km/h 10.0 mph /  16.1 km/h 94 % 0.00 in /  0 mm
22:08 57.5 °F /  14.2 °C 55.8 °F /  13.2 °C 29.84 in /  1010.4 hPa SW 3.9 mph /  6.3 km/h 7.0 mph /  11.3 km/h 94 % 0.00 in /  0 mm
22:13 57.5 °F /  14.2 °C 55.8 °F /  13.2 °C 29.84 in /  1010.4 hPa South 5.8 mph /  9.3 km/h 10.4 mph /  16.7 km/h 94 % 0.00 in /  0 mm
22:18 57.6 °F /  14.2 °C 55.9 °F /  13.3 °C 29.83 in /  1010 hPa SSW 7.1 mph /  11.4 km/h 11.5 mph /  18.5 km/h 94 % 0.00 in /  0 mm
22:23 57.6 °F /  14.2 °C 56.2 °F /  13.4 °C 29.84 in /  1010.4 hPa SSW 3.6 mph /  5.8 km/h 6.9 mph /  11.1 km/h 95 % 0.00 in /  0 mm
22:28 57.6 °F /  14.2 °C 56.2 °F /  13.4 °C 29.83 in /  1010 hPa SW 4.7 mph /  7.6 km/h 8.1 mph /  13 km/h 95 % 0.00 in /  0 mm
22:33 57.7 °F /  14.3 °C 56.3 °F /  13.5 °C 29.84 in /  1010.4 hPa South 4.5 mph /  7.2 km/h 5.8 mph /  9.3 km/h 95 % 0.00 in /  0 mm
22:38 57.7 °F /  14.3 °C 56.3 °F /  13.5 °C 29.84 in /  1010.4 hPa SSE 1.9 mph /  3.1 km/h 5.0 mph /  8 km/h 95 % 0.00 in /  0 mm
22:43 57.7 °F /  14.3 °C 56.3 °F /  13.5 °C 29.83 in /  1010 hPa SSW 5.9 mph /  9.5 km/h 9.2 mph /  14.8 km/h 95 % 0.00 in /  0 mm
22:48 57.7 °F /  14.3 °C 56.3 °F /  13.5 °C 29.84 in /  1010.4 hPa SW 2.3 mph /  3.7 km/h 5.0 mph /  8 km/h 95 % 0.00 in /  0 mm
22:54 57.6 °F /  14.2 °C 56.2 °F /  13.4 °C 29.84 in /  1010.4 hPa SW 6.3 mph /  10.1 km/h 11.5 mph /  18.5 km/h 95 % 0.00 in /  0 mm
22:59 57.6 °F /  14.2 °C 56.2 °F /  13.4 °C 29.84 in /  1010.4 hPa South 5.8 mph /  9.3 km/h 10.4 mph /  16.7 km/h 95 % 0.00 in /  0 mm
23:04 57.6 °F /  14.2 °C 56.2 °F /  13.4 °C 29.84 in /  1010.4 hPa SSW 4.2 mph /  6.8 km/h 8.1 mph /  13 km/h 95 % 0.00 in /  0 mm
23:09 57.5 °F /  14.2 °C 56.1 °F /  13.4 °C 29.84 in /  1010.4 hPa SSW 6.6 mph /  10.6 km/h 7.0 mph /  11.3 km/h 95 % 0.00 in /  0 mm
23:14 57.4 °F /  14.1 °C 55.7 °F /  13.2 °C 29.84 in /  1010.4 hPa SSW 6.2 mph /  10 km/h 11.5 mph /  18.5 km/h 94 % 0.00 in /  0 mm
23:19 57.3 °F /  14.1 °C 55.6 °F /  13.1 °C 29.83 in /  1010 hPa SSW 4.5 mph /  7.2 km/h 8.1 mph /  13 km/h 94 % 0.00 in /  0 mm
23:24 57.1 °F /  13.9 °C 55.4 °F /  13 °C 29.83 in /  1010 hPa SSW 5.3 mph /  8.5 km/h 8.1 mph /  13 km/h 94 % 0.00 in /  0 mm
23:29 57.0 °F /  13.9 °C 55.3 °F /  12.9 °C 29.83 in /  1010 hPa SSW 4.4 mph /  7.1 km/h 11.5 mph /  18.5 km/h 94 % 0.00 in /  0 mm
23:34 56.9 °F /  13.8 °C 55.2 °F /  12.9 °C 29.84 in /  1010.4 hPa SSW 7.7 mph /  12.4 km/h 12.7 mph /  20.4 km/h 94 % 0.00 in /  0 mm
23:39 56.8 °F /  13.8 °C 55.1 °F /  12.8 °C 29.83 in /  1010 hPa SSW 5.2 mph /  8.4 km/h 7.0 mph /  11.3 km/h 94 % 0.00 in /  0 mm
23:44 56.7 °F /  13.7 °C 55.0 °F /  12.8 °C 29.83 in /  1010 hPa SSW 5.5 mph /  8.9 km/h 8.1 mph /  13 km/h 94 % 0.00 in /  0 mm
23:49 56.6 °F /  13.7 °C 54.9 °F /  12.7 °C 29.84 in /  1010.4 hPa South 5.0 mph /  8 km/h 6.9 mph /  11.1 km/h 94 % 0.00 in /  0 mm
23:54 56.5 °F /  13.6 °C 55.1 °F /  12.8 °C 29.83 in /  1010 hPa SSW 3.0 mph /  4.8 km/h 6.9 mph /  11.1 km/h 95 % 0.00 in /  0 mm
23:59 56.4 °F /  13.6 °C 55.0 °F /  12.8 °C 29.83 in /  1010 hPa SW 2.8 mph /  4.5 km/h 6.9 mph /  11.1 km/h 95 % 0.00 in /  0 mm
Crab Meadow Weather
Compliments of Weather Underground - 3 mb

Script developed by  Jim McMurry - jmcmurry@mwt.net Adapted for the template by  Wim van der Kuil - Leuven-Template.eu

Weather Terms: Frost Advisory - Widespread frost during the growing season. Frost generally occurs with fair skies and light winds.